Time;durP1;ratioP1;P1;durP2;ratioP2;P2;SDS_P1;SDS_P2;PMS_P1;PMS_P2;Temp;Humidity;BMP_temperature;BMP_pressure;BME280_temperature;BME280_humidity;BME280_pressure;Samples;Min_cycle;Max_cycle;Signal;HPM_P1;HPM_P2
2023/11/17 00:01:24;;;;;;;;;;;;;;;2.92;83.07;100532.06;4075295;29;20379;-69
2023/11/17 00:03:29;;;;;;;;;;;;;;;2.91;83.30;100525.03;4075156;29;19927;-68
2023/11/17 00:05:31;;;;;;;;;;;;;;;2.89;83.39;100532.34;4075567;29;20022;-68
2023/11/17 00:07:32;;;;;;;;;;;;;;;2.87;83.41;100529.81;4075650;29;20021;-68
2023/11/17 00:09:34;;;;;;;;;;;;;;;2.85;83.32;100531.78;4075703;29;19959;-68
2023/11/17 00:11:36;;;;;;;;;;;;;;;2.84;83.34;100538.06;4074753;29;20026;-69
2023/11/17 00:13:40;;;;;;;;;;;;;;;2.82;83.37;100541.84;4075800;29;20442;-70
2023/11/17 00:15:42;;;;;;;;;;;;;;;2.80;83.44;100541.97;4075454;29;20371;-68
2023/11/17 00:17:44;;;;;;;;;;;;;;;2.79;83.29;100548.28;4058722;29;20394;-69
2023/11/17 00:19:45;;;;;;;;;;;;;;;2.78;83.65;100551.09;4058171;29;20608;-71
2023/11/17 00:21:47;;;;;;;;;;;;;;;2.77;83.60;100544.06;4075648;29;20030;-68
2023/11/17 00:23:49;;;;;;;;;;;;;;;2.74;83.58;100550.50;4042811;29;20034;-69
2023/11/17 00:25:54;;;;;;;;;;;;;;;2.72;83.65;100549.78;4057984;29;20023;-69
2023/11/17 00:27:57;;;;;;;;;;;;;;;2.72;83.74;100548.94;4075117;29;20457;-70
2023/11/17 00:30:02;;;;;;;;;;;;;;;2.72;83.63;100547.13;4065057;29;20026;-70
2023/11/17 00:32:04;;;;;;;;;;;;;;;2.72;83.64;100548.94;4074169;29;20042;-68
2023/11/17 00:34:07;;;;;;;;;;;;;;;2.72;83.75;100554.28;4075210;29;20025;-67
2023/11/17 00:36:10;;;;;;;;;;;;;;;2.72;83.62;100556.94;4064490;29;20026;-68
2023/11/17 00:38:12;;;;;;;;;;;;;;;2.70;83.54;100552.59;4065227;29;20026;-67
2023/11/17 00:40:15;;;;;;;;;;;;;;;2.72;83.60;100546.28;4058166;29;20508;-69
2023/11/17 00:42:18;;;;;;;;;;;;;;;2.72;83.73;100554.28;4064887;29;20236;-68
2023/11/17 00:44:19;;;;;;;;;;;;;;;2.71;83.72;100548.09;4075287;29;20393;-67
2023/11/17 00:46:22;;;;;;;;;;;;;;;2.70;83.62;100549.91;4057009;29;19947;-68
2023/11/17 00:48:25;;;;;;;;;;;;;;;2.72;83.89;100552.44;4075179;29;20426;-68
2023/11/17 00:50:29;;;;;;;;;;;;;;;2.72;83.70;100551.63;4074759;29;20026;-67
2023/11/17 00:52:32;;;;;;;;;;;;;;;2.73;83.97;100555.94;4064507;29;20009;-68
2023/11/17 00:54:42;;;;;;;;;;;;;;;2.73;84.20;100543.50;4057946;29;20030;-68
2023/11/17 00:56:44;;;;;;;;;;;;;;;2.75;84.15;100562.84;4049363;29;20007;-69
2023/11/17 00:58:45;;;;;;;;;;;;;;;2.75;84.23;100573.53;4074394;29;20033;-69
2023/11/17 01:00:47;;;;;;;;;;;;;;;2.76;84.13;100567.22;4074265;29;20022;-68
2023/11/17 01:02:50;;;;;;;;;;;;;;;2.77;84.20;100570.72;4074343;29;20022;-69
2023/11/17 01:04:52;;;;;;;;;;;;;;;2.78;84.38;100575.09;4074514;29;20606;-68
2023/11/17 01:06:54;;;;;;;;;;;;;;;2.78;84.33;100572.44;4074303;29;20025;-68
2023/11/17 01:08:56;;;;;;;;;;;;;;;2.78;84.41;100572.44;4075133;29;20017;-68
2023/11/17 01:10:58;;;;;;;;;;;;;;;2.78;84.34;100578.59;4074566;29;20498;-69
2023/11/17 01:13:00;;;;;;;;;;;;;;;2.78;84.26;100580.44;4074342;29;20033;-69
2023/11/17 01:15:04;;;;;;;;;;;;;;;2.79;84.31;100582.09;4073886;29;20022;-70
2023/11/17 01:17:07;;;;;;;;;;;;;;;2.79;84.26;100584.78;4064694;29;20391;-69
2023/11/17 01:19:11;;;;;;;;;;;;;;;2.79;84.36;100584.78;4074553;29;19931;-68
2023/11/17 01:21:13;;;;;;;;;;;;;;;2.81;84.40;100582.84;4073684;29;20030;-69
2023/11/17 01:23:15;;;;;;;;;;;;;;;2.81;84.28;100583.69;4071871;29;20014;-69
2023/11/17 01:25:17;;;;;;;;;;;;;;;2.82;84.39;100577.38;4064211;29;20051;-68
2023/11/17 01:27:19;;;;;;;;;;;;;;;2.83;84.61;100576.38;4074017;29;20632;-68
2023/11/17 01:29:21;;;;;;;;;;;;;;;2.84;84.73;100578.09;4073937;29;20025;-69
2023/11/17 01:31:23;;;;;;;;;;;;;;;2.85;84.70;100578.91;4074520;29;20026;-68
2023/11/17 01:33:25;;;;;;;;;;;;;;;2.86;84.52;100580.63;4056951;29;20029;-69
2023/11/17 01:35:28;;;;;;;;;;;;;;;2.88;84.64;100578.66;4074413;29;20041;-68
2023/11/17 01:37:30;;;;;;;;;;;;;;;2.89;84.69;100580.34;4080388;29;20674;-69
2023/11/17 01:39:32;;;;;;;;;;;;;;;2.92;84.71;100579.25;4074341;29;19927;-69
2023/11/17 01:41:34;;;;;;;;;;;;;;;2.91;84.66;100583.72;4074139;29;20014;-68
2023/11/17 01:43:38;;;;;;;;;;;;;;;2.92;84.72;100589.94;4074234;29;20053;-68
2023/11/17 01:45:42;;;;;;;;;;;;;;;2.93;84.91;100589.81;4074091;29;20009;-71
2023/11/17 01:47:44;;;;;;;;;;;;;;;2.96;85.05;100586.00;4073349;29;20010;-69
2023/11/17 01:49:45;;;;;;;;;;;;;;;2.96;85.05;100584.19;4073444;29;20022;-68
2023/11/17 01:51:49;;;;;;;;;;;;;;;2.98;84.91;100595.56;4063765;29;20015;-72
2023/11/17 01:53:53;;;;;;;;;;;;;;;2.99;85.02;100597.25;4079697;29;20005;-69
2023/11/17 01:55:55;;;;;;;;;;;;;;;3.00;85.38;100596.28;4074214;29;20022;-69
2023/11/17 01:57:57;;;;;;;;;;;;;;;3.02;85.13;100598.81;4064093;29;20026;-69
2023/11/17 01:59:59;;;;;;;;;;;;;;;2.86;85.32;100569.94;4057259;29;19931;-69
2023/11/17 02:02:01;;;;;;;;;;;;;;;3.07;85.04;100599.25;4057129;29;19966;-69
2023/11/17 02:04:04;;;;;;;;;;;;;;;3.08;85.11;100592.97;4074269;29;20025;-69
2023/11/17 02:06:08;;;;;;;;;;;;;;;3.10;85.25;100591.00;4078788;29;20513;-70
2023/11/17 02:08:19;;;;;;;;;;;;;;;3.14;84.99;100599.59;4057541;29;20034;-70
2023/11/17 02:10:23;;;;;;;;;;;;;;;3.16;85.04;100600.31;4073182;29;20011;-68
2023/11/17 02:12:27;;;;;;;;;;;;;;;3.16;85.26;100598.47;4076357;29;20033;-70
2023/11/17 02:14:30;;;;;;;;;;;;;;;3.18;85.08;100587.66;4059923;29;20034;-70
2023/11/17 02:16:33;;;;;;;;;;;;;;;3.20;85.29;100593.75;4077500;29;20022;-71
2023/11/17 02:18:37;;;;;;;;;;;;;;;3.22;85.22;100583.75;4067303;29;20057;-69
2023/11/17 02:20:41;;;;;;;;;;;;;;;3.23;84.87;100594.31;4067487;29;20018;-69
2023/11/17 02:22:45;;;;;;;;;;;;;;;3.27;85.12;100591.38;4067601;29;20042;-68
2023/11/17 02:24:52;;;;;;;;;;;;;;;3.29;84.87;100590.28;4078949;29;20026;-70
2023/11/17 02:27:12;;;;;;;;;;;;;;;3.31;85.05;100598.13;4077196;29;20017;-71
2023/11/17 02:29:23;;;;;;;;;;;;;;;3.34;84.81;100593.38;4077865;29;20021;-70
2023/11/17 02:31:29;;;;;;;;;;;;;;;3.36;84.65;100606.59;4065707;29;20033;-70
2023/11/17 02:33:32;;;;;;;;;;;;;;;3.36;84.73;100599.41;4082021;29;20022;-71
2023/11/17 02:35:34;;;;;;;;;;;;;;;3.38;84.81;100610.81;4060333;29;20021;-69
2023/11/17 02:37:38;;;;;;;;;;;;;;;3.39;84.56;100607.16;4076999;29;20050;-71
2023/11/17 02:39:39;;;;;;;;;;;;;;;3.42;84.69;100604.22;4077148;29;20030;-69
2023/11/17 02:41:47;;;;;;;;;;;;;;;3.43;84.45;100613.94;4075987;29;19978;-69
2023/11/17 02:43:49;;;;;;;;;;;;;;;3.46;84.49;100609.28;4076960;29;20030;-68
2023/11/17 02:45:53;;;;;;;;;;;;;;;3.47;84.58;100605.66;4059245;29;20018;-69
2023/11/17 02:47:56;;;;;;;;;;;;;;;3.49;84.54;100606.38;4077370;29;20021;-69
2023/11/17 02:50:01;;;;;;;;;;;;;;;3.50;84.57;100611.56;4076751;29;20026;-68
2023/11/17 02:52:03;;;;;;;;;;;;;;;3.54;84.29;100609.47;4066365;29;20010;-69
2023/11/17 02:54:08;;;;;;;;;;;;;;;3.54;84.52;100607.66;4075972;29;20009;-68
2023/11/17 02:56:10;;;;;;;;;;;;;;;3.58;84.23;100613.56;4075911;29;20033;-69
2023/11/17 02:58:15;;;;;;;;;;;;;;;3.58;84.24;100611.72;4075870;29;20022;-68
2023/11/17 03:00:17;;;;;;;;;;;;;;;3.62;84.16;100609.66;4066094;29;20022;-69
2023/11/17 03:02:20;;;;;;;;;;;;;;;3.65;84.31;100611.19;4077001;29;20860;-69
2023/11/17 03:04:22;;;;;;;;;;;;;;;3.69;84.06;100612.63;4066148;29;20034;-69
2023/11/17 03:06:23;;;;;;;;;;;;;;;3.69;83.91;100615.28;4066746;29;20014;-70
2023/11/17 03:08:25;;;;;;;;;;;;;;;3.71;83.67;100614.16;4076730;29;20437;-69
2023/11/17 03:10:27;;;;;;;;;;;;;;;3.73;83.79;100614.03;4076722;29;20432;-69
2023/11/17 03:12:29;;;;;;;;;;;;;;;3.75;83.55;100620.09;4076494;29;20026;-69
2023/11/17 03:14:33;;;;;;;;;;;;;;;3.77;83.40;100623.47;4076048;29;20022;-69
2023/11/17 03:16:34;;;;;;;;;;;;;;;3.80;83.42;100612.50;4066489;29;20017;-69
2023/11/17 03:18:38;;;;;;;;;;;;;;;3.81;83.22;100624.91;4076390;29;19927;-69
2023/11/17 03:20:40;;;;;;;;;;;;;;;3.81;83.03;100624.91;4059827;29;20023;-68
2023/11/17 03:22:44;;;;;;;;;;;;;;;3.83;83.14;100625.59;4073942;29;19962;-70
2023/11/17 03:24:46;;;;;;;;;;;;;;;3.85;82.99;100617.44;4074184;29;20442;-71
2023/11/17 03:26:48;;;;;;;;;;;;;;;3.87;82.67;100627.03;4075647;29;20481;-71
2023/11/17 03:28:50;;;;;;;;;;;;;;;3.90;82.43;100623.22;4065821;29;19958;-69
2023/11/17 03:30:55;;;;;;;;;;;;;;;3.90;82.62;100628.56;4066401;29;20017;-68
2023/11/17 03:32:57;;;;;;;;;;;;;;;3.93;82.25;100636.31;4076121;29;20022;-69
2023/11/17 03:34:59;;;;;;;;;;;;;;;3.95;82.10;100629.84;4058821;29;20419;-70
2023/11/17 03:37:01;;;;;;;;;;;;;;;3.95;82.11;100632.53;4076162;29;20022;-69
2023/11/17 03:39:03;;;;;;;;;;;;;;;3.98;82.14;100631.38;4081538;29;20029;-68
2023/11/17 03:41:06;;;;;;;;;;;;;;;3.96;81.71;100628.84;4058286;29;20029;-69
2023/11/17 03:43:07;;;;;;;;;;;;;;;3.97;81.81;100638.56;4065995;29;20900;-68
2023/11/17 03:45:15;;;;;;;;;;;;;;;3.98;81.88;100636.75;4076207;29;20037;-69
2023/11/17 03:47:17;;;;;;;;;;;;;;;4.01;82.00;100640.97;4059271;29;20076;-71
2023/11/17 03:49:19;;;;;;;;;;;;;;;4.02;82.09;100640.84;4075931;29;20025;-69
2023/11/17 03:51:22;;;;;;;;;;;;;;;4.02;81.80;100646.19;4065417;29;20021;-72
2023/11/17 03:53:24;;;;;;;;;;;;;;;4.03;81.80;100637.19;4076128;29;20461;-69
2023/11/17 03:55:27;;;;;;;;;;;;;;;4.03;81.98;100645.22;4058784;29;20031;-68
2023/11/17 03:57:30;;;;;;;;;;;;;;;4.04;82.17;100648.72;4059610;29;19974;-69
2023/11/17 03:59:32;;;;;;;;;;;;;;;4.04;82.03;100644.22;4080318;29;20025;-69
2023/11/17 04:01:35;;;;;;;;;;;;;;;4.05;82.24;100648.59;4075978;29;20018;-69
2023/11/17 04:03:36;;;;;;;;;;;;;;;4.08;82.43;100650.16;4076424;29;19958;-70
2023/11/17 04:05:38;;;;;;;;;;;;;;;4.08;82.22;100650.16;4075744;29;20022;-69
2023/11/17 04:07:42;;;;;;;;;;;;;;;4.08;82.12;100650.97;4075722;29;20017;-70
2023/11/17 04:09:47;;;;;;;;;;;;;;;4.07;82.50;100654.63;4075331;29;20030;-69
2023/11/17 04:11:49;;;;;;;;;;;;;;;4.10;82.21;100664.22;4075467;29;20042;-70
2023/11/17 04:13:51;;;;;;;;;;;;;;;4.11;82.30;100663.25;4075220;29;20029;-68
2023/11/17 04:15:53;;;;;;;;;;;;;;;4.11;82.16;100663.25;4075811;29;20374;-69
2023/11/17 04:17:57;;;;;;;;;;;;;;;4.10;82.28;100659.69;4075468;29;20018;-68
2023/11/17 04:19:59;;;;;;;;;;;;;;;4.11;82.52;100665.91;4074002;29;20049;-70
2023/11/17 04:22:01;;;;;;;;;;;;;;;4.11;82.22;100660.56;4079830;29;19927;-69
2023/11/17 04:24:06;;;;;;;;;;;;;;;4.11;82.25;100666.75;4075268;29;19931;-69
2023/11/17 04:26:09;;;;;;;;;;;;;;;4.12;82.46;100663.09;4075507;29;20025;-69
2023/11/17 04:28:11;;;;;;;;;;;;;;;4.14;82.20;100665.63;4075337;29;20017;-68
2023/11/17 04:30:13;;;;;;;;;;;;;;;4.15;82.24;100668.19;4057781;29;20014;-69
2023/11/17 04:32:15;;;;;;;;;;;;;;;4.16;82.06;100661.00;4074503;29;20014;-70
2023/11/17 04:34:16;;;;;;;;;;;;;;;4.19;82.06;100662.56;4074522;29;20041;-69
2023/11/17 04:36:23;;;;;;;;;;;;;;;4.20;81.93;100661.56;4074202;29;19953;-71
2023/11/17 04:38:25;;;;;;;;;;;;;;;4.22;81.88;100659.59;4075477;29;20021;-69
2023/11/17 04:40:28;;;;;;;;;;;;;;;4.24;81.66;100669.16;4075562;29;20454;-69
2023/11/17 04:42:31;;;;;;;;;;;;;;;4.25;81.36;100667.34;4074768;29;20010;-71
2023/11/17 04:44:33;;;;;;;;;;;;;;;4.25;81.43;100670.03;4074590;29;20022;-68
2023/11/17 04:46:34;;;;;;;;;;;;;;;4.26;81.32;100671.69;4075017;29;20031;-69
2023/11/17 04:48:37;;;;;;;;;;;;;;;4.28;81.32;100678.59;4074983;29;19927;-69
2023/11/17 04:50:38;;;;;;;;;;;;;;;4.27;81.48;100674.22;4074452;29;20014;-70
2023/11/17 04:52:40;;;;;;;;;;;;;;;4.28;81.15;100677.78;4074566;29;20022;-69
2023/11/17 04:54:46;;;;;;;;;;;;;;;4.30;81.35;100676.63;4074051;29;20022;-69
2023/11/17 04:57:10;;;;;;;;;;;;;;;4.30;81.21;100676.63;4187428;28;19931;-91
2023/11/17 04:59:31;;;;;;;;;;;;;;;4.31;81.24;100682.81;4157097;28;19984;-91
2023/11/17 05:02:06;;;;;;;;;;;;;;;4.31;80.99;100678.34;4178344;28;19928;-92
2023/11/17 05:07:03;;;;;;;;;;;;;;;4.32;81.11;100689.88;4162699;28;20416;-90
2023/11/17 05:09:28;;;;;;;;;;;;;;;4.33;81.20;100695.06;4163413;28;20028;-91
2023/11/17 05:11:52;;;;;;;;;;;;;;;4.36;81.06;100699.31;4147518;28;19928;-91
2023/11/17 05:14:17;;;;;;;;;;;;;;;4.38;80.84;100704.53;4165268;28;19956;-92
2023/11/17 05:16:49;;;;;;;;;;;;;;;4.38;80.80;100707.19;4169741;28;20040;-91
2023/11/17 05:19:10;;;;;;;;;;;;;;;4.39;80.94;100707.06;4150050;28;19976;-86
2023/11/17 05:21:32;;;;;;;;;;;;;;;4.40;80.84;100713.25;4148414;28;19949;-89
2023/11/17 05:23:54;;;;;;;;;;;;;;;4.40;81.29;100711.41;4171464;28;20370;-88
2023/11/17 05:26:14;;;;;;;;;;;;;;;4.41;81.37;100720.28;4162334;28;20485;-86
2023/11/17 05:28:35;;;;;;;;;;;;;;;4.42;81.45;100721.97;4161471;28;19928;-86
2023/11/17 05:31:03;;;;;;;;;;;;;;;4.41;81.43;100731.00;4175554;28;19944;-93
2023/11/17 05:33:23;;;;;;;;;;;;;;;4.41;81.59;100722.97;4162372;28;19952;-83
2023/11/17 05:35:44;;;;;;;;;;;;;;;4.40;81.89;100734.63;4178573;28;19932;-89
2023/11/17 05:38:06;;;;;;;;;;;;;;;4.40;81.53;100729.28;4174354;28;19971;-89
2023/11/17 05:40:29;;;;;;;;;;;;;;;4.42;81.54;100738.00;4151027;28;19977;-91
2023/11/17 05:42:52;;;;;;;;;;;;;;;4.42;81.83;100724.63;4177676;28;19928;-90
2023/11/17 05:45:14;;;;;;;;;;;;;;;4.43;81.72;100723.66;4163078;28;19927;-87
2023/11/17 05:47:43;;;;;;;;;;;;;;;4.42;82.10;100728.19;4152533;28;19928;-91
2023/11/17 05:50:07;;;;;;;;;;;;;;;4.43;81.75;100726.34;4176350;28;20285;-90
2023/11/17 05:52:30;;;;;;;;;;;;;;;4.42;81.93;100736.19;4159673;28;20361;-92
2023/11/17 05:54:51;;;;;;;;;;;;;;;4.41;82.01;100734.50;4163365;28;19955;-89
2023/11/17 05:57:12;;;;;;;;;;;;;;;4.40;82.02;100751.53;4177478;28;19928;-90
2023/11/17 05:59:32;;;;;;;;;;;;;;;4.38;82.24;100742.81;4169128;28;19971;-90
2023/11/17 06:01:53;;;;;;;;;;;;;;;4.40;82.23;100753.34;4188097;28;20268;-93
2023/11/17 06:04:16;;;;;;;;;;;;;;;4.42;81.90;100746.03;4174869;28;19949;-92
2023/11/17 06:06:37;;;;;;;;;;;;;;;4.44;81.74;100752.13;4175448;28;19936;-91
2023/11/17 06:08:58;;;;;;;;;;;;;;;4.43;81.35;100756.59;4175727;28;19992;-92
2023/11/17 06:11:24;;;;;;;;;;;;;;;4.44;81.51;100760.13;4169722;28;19948;-92
2023/11/17 06:13:45;;;;;;;;;;;;;;;4.43;81.57;100764.63;4149947;28;19928;-90
2023/11/17 06:16:06;;;;;;;;;;;;;;;4.42;81.38;100770.97;4176906;28;19984;-93
2023/11/17 06:18:27;;;;;;;;;;;;;;;4.43;81.36;100778.00;4158238;28;19953;-86
2023/11/17 06:20:49;;;;;;;;;;;;;;;4.45;81.40;100772.50;4167935;28;19992;-87
2023/11/17 06:23:10;;;;;;;;;;;;;;;4.44;81.38;100778.84;4168601;28;20279;-91
2023/11/17 06:25:32;;;;;;;;;;;;;;;4.44;81.30;100763.66;4168628;28;19936;-89
2023/11/17 06:27:53;;;;;;;;;;;;;;;4.43;81.41;100769.97;4137056;28;19972;-87
2023/11/17 06:30:14;;;;;;;;;;;;;;;4.43;81.32;100766.47;4164883;28;19974;-88
2023/11/17 06:32:34;;;;;;;;;;;;;;;4.41;81.52;100763.91;4150742;28;19928;-87
2023/11/17 06:34:56;;;;;;;;;;;;;;;4.42;81.77;100778.13;4163521;28;19940;-86
2023/11/17 06:37:18;;;;;;;;;;;;;;;4.43;81.69;100778.00;4149777;28;20020;-87
2023/11/17 06:39:39;;;;;;;;;;;;;;;4.43;81.59;100772.63;4148907;28;19928;-87
2023/11/17 06:42:00;;;;;;;;;;;;;;;4.44;81.83;100776.19;4149694;28;19991;-87
2023/11/17 06:44:24;;;;;;;;;;;;;;;4.44;81.91;100779.69;4161401;28;19936;-87
2023/11/17 06:46:46;;;;;;;;;;;;;;;4.42;81.78;100779.00;4162099;28;20010;-88
2023/11/17 06:49:08;;;;;;;;;;;;;;;4.42;82.10;100781.66;4162569;28;20012;-87
2023/11/17 06:51:31;;;;;;;;;;;;;;;4.43;81.88;100793.19;4140036;28;20301;-88
2023/11/17 06:53:53;;;;;;;;;;;;;;;4.43;82.08;100794.03;4163912;28;20317;-86
2023/11/17 06:56:14;;;;;;;;;;;;;;;4.43;81.90;100799.38;4163835;28;19936;-86
2023/11/17 06:58:34;;;;;;;;;;;;;;;4.46;81.98;100787.59;4162584;28;19998;-85
2023/11/17 07:00:56;;;;;;;;;;;;;;;4.48;81.81;100782.94;4162911;28;20386;-86
2023/11/17 07:03:17;;;;;;;;;;;;;;;4.46;82.11;100792.94;4164432;28;19936;-87
2023/11/17 07:05:40;;;;;;;;;;;;;;;4.46;81.98;100788.41;4147627;28;19936;-87
2023/11/17 07:08:01;;;;;;;;;;;;;;;4.46;81.96;100792.94;4163219;28;19999;-86
2023/11/17 07:10:24;;;;;;;;;;;;;;;4.45;82.04;100793.91;4149159;28;20017;-87
2023/11/17 07:12:46;;;;;;;;;;;;;;;4.46;82.02;100804.47;4164047;28;20287;-87
2023/11/17 07:15:11;;;;;;;;;;;;;;;4.45;81.97;100804.59;4164529;28;19974;-88
2023/11/17 07:17:34;;;;;;;;;;;;;;;4.46;81.78;100808.97;4134456;28;19928;-87
2023/11/17 07:19:55;;;;;;;;;;;;;;;4.46;81.86;100830.38;4148050;28;19985;-86
2023/11/17 07:22:16;;;;;;;;;;;;;;;4.46;81.85;100817.84;4149024;28;20799;-87
2023/11/17 07:24:37;;;;;;;;;;;;;;;4.45;82.08;100820.66;4136588;28;20009;-87
2023/11/17 07:27:01;;;;;;;;;;;;;;;4.44;82.12;100817.13;4156075;28;19948;-87
2023/11/17 07:29:23;;;;;;;;;;;;;;;4.45;82.08;100824.19;4164516;28;19944;-87
2023/11/17 07:31:44;;;;;;;;;;;;;;;4.45;81.90;100824.19;4164603;28;19967;-87
2023/11/17 07:34:07;;;;;;;;;;;;;;;4.45;82.31;100832.22;4149957;28;19979;-88
2023/11/17 07:36:28;;;;;;;;;;;;;;;4.46;82.07;100835.72;4163621;28;19928;-87
2023/11/17 07:38:51;;;;;;;;;;;;;;;4.47;82.15;100832.06;4136340;28;19980;-88
2023/11/17 07:41:12;;;;;;;;;;;;;;;4.49;82.20;100832.78;4147848;28;19929;-87
2023/11/17 07:43:36;;;;;;;;;;;;;;;4.49;81.95;100838.13;4149013;28;20028;-87
2023/11/17 07:45:56;;;;;;;;;;;;;;;4.49;82.21;100832.78;4164242;28;20433;-87
2023/11/17 07:48:17;;;;;;;;;;;;;;;4.48;82.00;100837.28;4162212;28;19995;-87
2023/11/17 07:50:40;;;;;;;;;;;;;;;4.51;82.02;100825.47;4149402;28;20044;-88
2023/11/17 07:53:01;;;;;;;;;;;;;;;4.51;81.87;100845.03;4149068;28;20005;-87
2023/11/17 07:55:22;;;;;;;;;;;;;;;4.51;82.02;100853.06;4163118;28;19928;-86
2023/11/17 07:57:43;;;;;;;;;;;;;;;4.53;81.75;100844.03;4143184;28;20315;-87
2023/11/17 08:00:17;;;;;;;;;;;;;;;4.54;81.84;100853.78;4164033;28;19959;-87
2023/11/17 08:02:37;;;;;;;;;;;;;;;4.52;81.76;100848.56;4163268;28;19947;-86
2023/11/17 08:04:58;;;;;;;;;;;;;;;4.53;81.87;100854.75;4156689;28;19928;-86
2023/11/17 08:07:18;;;;;;;;;;;;;;;4.53;81.94;100858.28;4149328;28;20099;-86
2023/11/17 08:09:41;;;;;;;;;;;;;;;4.55;81.69;100863.50;4149633;28;19972;-85
2023/11/17 08:12:03;;;;;;;;;;;;;;;4.55;81.73;100871.53;4164153;28;19983;-87
2023/11/17 08:14:24;;;;;;;;;;;;;;;4.57;81.71;100866.88;4149319;28;19928;-88
2023/11/17 08:16:47;;;;;;;;;;;;;;;4.57;81.61;100872.22;4148598;28;20020;-86
2023/11/17 08:19:08;;;;;;;;;;;;;;;4.55;81.43;100876.88;4163186;28;19928;-87
2023/11/17 08:21:29;;;;;;;;;;;;;;;4.56;81.59;100873.19;4163318;28;19928;-85
2023/11/17 08:23:51;;;;;;;;;;;;;;;4.58;81.56;100872.09;4148768;28;20530;-86
2023/11/17 08:26:14;;;;;;;;;;;;;;;4.56;81.81;100868.72;4142942;28;20109;-86
2023/11/17 08:28:36;;;;;;;;;;;;;;;4.58;81.61;100879.28;4147892;28;19941;-86
2023/11/17 08:30:57;;;;;;;;;;;;;;;4.57;81.68;100886.44;4135053;28;20332;-87
2023/11/17 08:33:20;;;;;;;;;;;;;;;4.56;81.62;100895.47;4135878;28;19976;-87
2023/11/17 08:35:40;;;;;;;;;;;;;;;4.59;81.65;100888.97;4149336;28;20499;-85
2023/11/17 08:38:01;;;;;;;;;;;;;;;4.60;81.40;100891.53;4164054;28;20271;-86
2023/11/17 08:40:22;;;;;;;;;;;;;;;4.60;81.58;100896.03;4149060;28;19952;-87
2023/11/17 08:42:43;;;;;;;;;;;;;;;4.62;81.52;100905.59;4164020;28;19963;-86
2023/11/17 08:45:07;;;;;;;;;;;;;;;4.64;81.27;100897.44;4163411;28;19937;-86
2023/11/17 08:47:29;;;;;;;;;;;;;;;4.64;81.18;100909.00;4147850;28;20306;-86
2023/11/17 08:49:51;;;;;;;;;;;;;;;4.63;81.46;100907.31;4148523;28;19945;-86
2023/11/17 08:52:13;;;;;;;;;;;;;;;4.64;81.48;100910.81;4164185;28;19967;-86
2023/11/17 08:54:33;;;;;;;;;;;;;;;4.66;81.78;100908.88;4148881;28;19936;-86
2023/11/17 08:56:58;;;;;;;;;;;;;;;4.66;81.41;100915.06;4148114;28;20097;-87
2023/11/17 08:59:19;;;;;;;;;;;;;;;4.68;81.72;100915.75;4149198;28;20291;-87
2023/11/17 09:01:41;;;;;;;;;;;;;;;4.68;82.14;100921.13;4147480;28;20013;-87
2023/11/17 09:04:01;;;;;;;;;;;;;;;4.69;82.11;100914.78;4164511;28;20272;-87
2023/11/17 09:06:24;;;;;;;;;;;;;;;4.69;82.04;100922.81;4162234;28;19956;-86
2023/11/17 09:08:44;;;;;;;;;;;;;;;4.71;81.84;100928.03;4163839;28;19948;-86
2023/11/17 09:11:05;;;;;;;;;;;;;;;4.73;82.01;100943.97;4131560;28;19969;-86
2023/11/17 09:13:28;;;;;;;;;;;;;;;4.75;81.80;100944.66;4164837;28;20021;-86
2023/11/17 09:15:50;;;;;;;;;;;;;;;4.76;81.77;100954.41;4148886;28;19972;-86
2023/11/17 09:18:13;;;;;;;;;;;;;;;4.75;81.84;100950.03;4161079;28;19931;-85
2023/11/17 09:20:34;;;;;;;;;;;;;;;4.74;81.93;100957.22;4158585;28;19936;-86
2023/11/17 09:22:56;;;;;;;;;;;;;;;4.75;81.75;100963.41;4144880;28;19928;-86
2023/11/17 09:25:22;;;;;;;;;;;;;;;4.75;81.76;100960.72;4163053;28;19971;-86
2023/11/17 09:27:44;;;;;;;;;;;;;;;4.75;81.95;100968.75;4148225;28;19932;-86
2023/11/17 09:30:05;;;;;;;;;;;;;;;4.76;81.81;100967.78;4146829;28;20366;-87
2023/11/17 09:32:28;;;;;;;;;;;;;;;4.76;81.82;100963.25;4145932;28;20009;-87
2023/11/17 09:34:49;;;;;;;;;;;;;;;4.76;81.66;100963.25;4163392;28;19991;-87
2023/11/17 09:37:11;;;;;;;;;;;;;;;4.77;81.68;100956.09;4149085;28;20088;-86
2023/11/17 09:39:33;;;;;;;;;;;;;;;4.77;81.89;100956.09;4162384;28;19927;-86
2023/11/17 09:41:54;;;;;;;;;;;;;;;4.78;81.54;100964.00;4146776;28;19976;-87
2023/11/17 09:44:15;;;;;;;;;;;;;;;4.78;81.66;100955.09;4149859;28;19987;-86
2023/11/17 09:46:37;;;;;;;;;;;;;;;4.79;81.85;100959.47;4161167;28;19928;-87
2023/11/17 09:49:00;;;;;;;;;;;;;;;4.78;81.67;100965.81;4136335;28;19940;-87
2023/11/17 09:51:23;;;;;;;;;;;;;;;4.78;81.80;100965.81;4147244;28;19928;-86
2023/11/17 09:53:44;;;;;;;;;;;;;;;4.78;81.87;100965.81;4127672;28;19944;-86
2023/11/17 09:56:08;;;;;;;;;;;;;;;4.78;81.80;100964.00;4150521;28;19984;-86
2023/11/17 09:58:29;;;;;;;;;;;;;;;4.80;81.82;100958.50;4149817;28;19971;-87
2023/11/17 10:00:51;;;;;;;;;;;;;;;4.80;81.63;100969.22;4135064;28;19929;-86
2023/11/17 10:03:13;;;;;;;;;;;;;;;4.80;81.62;100972.72;4163697;28;19975;-87
2023/11/17 10:05:34;;;;;;;;;;;;;;;4.82;81.60;100965.41;4152718;28;20065;-87
2023/11/17 10:07:55;;;;;;;;;;;;;;;4.83;81.90;100969.78;4150549;28;19973;-88
2023/11/17 10:10:16;;;;;;;;;;;;;;;4.83;81.41;100979.66;4151665;28;19956;-87
2023/11/17 10:12:39;;;;;;;;;;;;;;;4.83;81.52;100980.50;4163855;28;20318;-87
2023/11/17 10:15:00;;;;;;;;;;;;;;;4.83;81.29;100972.47;4135905;28;20462;-88
2023/11/17 10:17:21;;;;;;;;;;;;;;;4.84;81.20;100968.81;4151264;28;19928;-87
2023/11/17 10:19:42;;;;;;;;;;;;;;;4.86;81.18;100974.88;4151545;28;19970;-88
2023/11/17 10:22:03;;;;;;;;;;;;;;;4.89;81.26;100981.81;4163150;28;19936;-88
2023/11/17 10:24:24;;;;;;;;;;;;;;;4.89;81.24;100984.47;4144827;28;20495;-88
2023/11/17 10:26:47;;;;;;;;;;;;;;;4.88;81.25;100986.28;4145040;28;19928;-88
2023/11/17 10:29:10;;;;;;;;;;;;;;;4.88;81.35;100986.28;4165096;28;20390;-89
2023/11/17 10:31:31;;;;;;;;;;;;;;;4.91;81.16;100985.19;4136570;28;19964;-87
2023/11/17 10:33:54;;;;;;;;;;;;;;;4.95;81.06;100983.06;4143914;28;19979;-87
2023/11/17 10:36:20;;;;;;;;;;;;;;;4.94;80.69;100992.94;4149933;28;20028;-87
2023/11/17 10:38:42;;;;;;;;;;;;;;;4.93;80.84;100990.41;4149906;28;20372;-87
2023/11/17 10:41:16;;;;;;;;;;;;;;;4.93;80.55;100988.56;4164360;28;19971;-89
2023/11/17 10:43:46;;;;;;;;;;;;;;;4.94;80.83;100989.44;4143890;28;20777;-88
2023/11/17 10:46:09;;;;;;;;;;;;;;;4.94;80.69;100984.06;4122934;28;19936;-88
2023/11/17 10:48:30;;;;;;;;;;;;;;;4.96;80.78;100982.94;4137870;28;20009;-88
2023/11/17 10:50:52;;;;;;;;;;;;;;;4.97;80.46;100970.38;4145092;28;19940;-89
2023/11/17 10:53:13;;;;;;;;;;;;;;;4.97;80.66;100981.97;4150097;28;20000;-89
2023/11/17 10:55:34;;;;;;;;;;;;;;;4.98;80.71;100975.59;4149436;28;20713;-88
2023/11/17 10:58:03;;;;;;;;;;;;;;;4.98;80.55;100980.97;4148847;28;20505;-87
2023/11/17 11:00:27;;;;;;;;;;;;;;;5.01;80.53;100979.84;4147953;28;19928;-87
2023/11/17 11:02:53;;;;;;;;;;;;;;;5.01;80.70;100983.38;4149883;28;20008;-88
2023/11/17 11:05:14;;;;;;;;;;;;;;;5.00;80.72;100992.41;4163452;28;20279;-87
2023/11/17 11:07:43;;;;;;;;;;;;;;;4.99;80.69;100993.38;4164041;28;19987;-88
2023/11/17 11:10:14;;;;;;;;;;;;;;;5.02;80.95;100986.91;4149155;28;19985;-87
2023/11/17 11:12:38;;;;;;;;;;;;;;;5.01;80.99;100987.88;4172814;28;19944;-90
2023/11/17 11:14:58;;;;;;;;;;;;;;;5.04;81.11;100990.28;4172454;28;19983;-88
2023/11/17 11:17:19;;;;;;;;;;;;;;;5.04;80.72;100991.13;4164353;28;19932;-88
2023/11/17 11:19:41;;;;;;;;;;;;;;;5.03;80.86;100985.91;4179902;28;20008;-90
2023/11/17 11:22:04;;;;;;;;;;;;;;;5.07;81.02;100992.69;4180858;28;19960;-91
2023/11/17 11:24:25;;;;;;;;;;;;;;;5.07;80.62;100994.53;4179108;28;19976;-85
2023/11/17 11:26:47;;;;;;;;;;;;;;;5.08;80.50;101002.44;4151448;28;19957;-86
2023/11/17 11:29:08;;;;;;;;;;;;;;;5.09;80.43;100996.09;4143095;28;20825;-86
2023/11/17 11:31:30;;;;;;;;;;;;;;;5.10;80.64;100996.94;4137092;28;19928;-87
2023/11/17 11:33:51;;;;;;;;;;;;;;;5.09;80.39;100998.75;4165451;28;20422;-87
2023/11/17 11:36:14;;;;;;;;;;;;;;;5.12;80.63;100997.66;4147926;28;19939;-88
2023/11/17 11:38:35;;;;;;;;;;;;;;;5.11;80.18;101012.88;4149491;28;19960;-88